sensor_id;sensor_type;location;lat;lon;timestamp;temperature;humidity
7512;DHT22;9999;48.780;9.146;2022-09-09T00:01:46;15.80;99.90
7512;DHT22;9999;48.780;9.146;2022-09-09T00:04:24;15.80;99.90
7512;DHT22;9999;48.780;9.146;2022-09-09T00:07:01;15.70;99.90
7512;DHT22;9999;48.780;9.146;2022-09-09T00:09:32;15.70;99.90
7512;DHT22;9999;48.780;9.146;2022-09-09T00:12:10;15.70;99.90
7512;DHT22;9999;48.780;9.146;2022-09-09T00:14:45;15.70;99.90
7512;DHT22;9999;48.780;9.146;2022-09-09T00:17:22;15.80;99.90
7512;DHT22;9999;48.780;9.146;2022-09-09T00:19:56;15.80;99.90
7512;DHT22;9999;48.780;9.146;2022-09-09T00:22:29;15.80;99.90
7512;DHT22;9999;48.780;9.146;2022-09-09T00:25:02;15.80;99.90
7512;DHT22;9999;48.780;9.146;2022-09-09T00:27:36;15.80;99.90
7512;DHT22;9999;48.780;9.146;2022-09-09T00:30:15;15.80;99.90
7512;DHT22;9999;48.780;9.146;2022-09-09T00:32:45;15.80;99.90
7512;DHT22;9999;48.780;9.146;2022-09-09T00:35:17;15.80;99.90
7512;DHT22;9999;48.780;9.146;2022-09-09T00:37:48;15.90;99.90
7512;DHT22;9999;48.780;9.146;2022-09-09T00:40:23;15.90;99.90
7512;DHT22;9999;48.780;9.146;2022-09-09T00:43:01;15.90;99.90
7512;DHT22;9999;48.780;9.146;2022-09-09T00:48:34;15.90;99.90
7512;DHT22;9999;48.780;9.146;2022-09-09T00:51:11;15.90;99.90
7512;DHT22;9999;48.780;9.146;2022-09-09T00:53:58;15.90;99.90
7512;DHT22;9999;48.780;9.146;2022-09-09T00:56:35;16.00;99.90
7512;DHT22;9999;48.780;9.146;2022-09-09T00:59:15;15.90;99.90
7512;DHT22;9999;48.780;9.146;2022-09-09T01:01:47;15.90;99.90
7512;DHT22;9999;48.780;9.146;2022-09-09T01:04:18;16.00;99.90
7512;DHT22;9999;48.780;9.146;2022-09-09T01:06:55;16.00;99.90
7512;DHT22;9999;48.780;9.146;2022-09-09T01:09:33;16.00;99.90
7512;DHT22;9999;48.780;9.146;2022-09-09T01:12:09;16.00;99.90
7512;DHT22;9999;48.780;9.146;2022-09-09T01:14:42;16.00;99.90
7512;DHT22;9999;48.780;9.146;2022-09-09T01:17:14;16.00;99.90
7512;DHT22;9999;48.780;9.146;2022-09-09T01:19:58;16.00;99.90
7512;DHT22;9999;48.780;9.146;2022-09-09T01:22:35;16.00;99.90
7512;DHT22;9999;48.780;9.146;2022-09-09T01:25:25;16.00;99.90
7512;DHT22;9999;48.780;9.146;2022-09-09T01:28:19;16.00;99.90
7512;DHT22;9999;48.780;9.146;2022-09-09T01:30:47;16.10;99.90
7512;DHT22;9999;48.780;9.146;2022-09-09T01:33:18;16.10;99.90
7512;DHT22;9999;48.780;9.146;2022-09-09T01:35:48;16.10;99.90
7512;DHT22;9999;48.780;9.146;2022-09-09T01:38:18;16.10;99.90
7512;DHT22;9999;48.780;9.146;2022-09-09T01:40:47;16.00;99.90
7512;DHT22;9999;48.780;9.146;2022-09-09T01:43:16;16.00;99.90
7512;DHT22;9999;48.780;9.146;2022-09-09T01:45:43;16.00;99.90
7512;DHT22;9999;48.780;9.146;2022-09-09T01:48:10;16.00;99.90
7512;DHT22;9999;48.780;9.146;2022-09-09T01:50:43;16.00;99.90
7512;DHT22;9999;48.780;9.146;2022-09-09T01:53:11;15.90;99.90
7512;DHT22;9999;48.780;9.146;2022-09-09T01:55:44;16.00;99.90
7512;DHT22;9999;48.780;9.146;2022-09-09T01:58:28;16.00;99.90
7512;DHT22;9999;48.780;9.146;2022-09-09T02:01:03;15.90;99.90
7512;DHT22;9999;48.780;9.146;2022-09-09T02:03:32;15.90;99.90
7512;DHT22;9999;48.780;9.146;2022-09-09T02:06:17;15.90;99.90
7512;DHT22;9999;48.780;9.146;2022-09-09T02:08:52;15.90;99.90
7512;DHT22;9999;48.780;9.146;2022-09-09T02:11:22;15.90;99.90
7512;DHT22;9999;48.780;9.146;2022-09-09T02:14:06;15.90;99.90
7512;DHT22;9999;48.780;9.146;2022-09-09T02:16:41;15.70;99.90
7512;DHT22;9999;48.780;9.146;2022-09-09T02:19:13;15.70;99.90
7512;DHT22;9999;48.780;9.146;2022-09-09T02:22:00;15.60;99.90
7512;DHT22;9999;48.780;9.146;2022-09-09T02:24:28;15.60;99.90
7512;DHT22;9999;48.780;9.146;2022-09-09T02:27:11;15.70;99.90
7512;DHT22;9999;48.780;9.146;2022-09-09T02:29:42;15.70;99.90
7512;DHT22;9999;48.780;9.146;2022-09-09T02:32:13;15.70;99.90
7512;DHT22;9999;48.780;9.146;2022-09-09T02:34:43;15.60;99.90
7512;DHT22;9999;48.780;9.146;2022-09-09T02:37:13;15.60;99.90
7512;DHT22;9999;48.780;9.146;2022-09-09T02:39:46;15.60;99.90
7512;DHT22;9999;48.780;9.146;2022-09-09T02:42:16;15.60;99.90
7512;DHT22;9999;48.780;9.146;2022-09-09T02:44:45;15.60;99.90
7512;DHT22;9999;48.780;9.146;2022-09-09T02:47:27;15.50;99.90
7512;DHT22;9999;48.780;9.146;2022-09-09T02:50:08;15.50;99.90
7512;DHT22;9999;48.780;9.146;2022-09-09T02:52:44;15.50;99.90
7512;DHT22;9999;48.780;9.146;2022-09-09T02:55:18;15.40;99.90
7512;DHT22;9999;48.780;9.146;2022-09-09T02:57:50;15.40;99.90
7512;DHT22;9999;48.780;9.146;2022-09-09T03:00:24;15.30;99.90
7512;DHT22;9999;48.780;9.146;2022-09-09T03:02:52;15.40;99.90
7512;DHT22;9999;48.780;9.146;2022-09-09T03:05:20;15.40;99.90
7512;DHT22;9999;48.780;9.146;2022-09-09T03:07:47;15.30;99.90
7512;DHT22;9999;48.780;9.146;2022-09-09T03:10:16;15.30;99.90
7512;DHT22;9999;48.780;9.146;2022-09-09T03:12:43;15.20;99.90
7512;DHT22;9999;48.780;9.146;2022-09-09T03:15:11;15.20;99.90
7512;DHT22;9999;48.780;9.146;2022-09-09T03:17:40;15.20;99.90
7512;DHT22;9999;48.780;9.146;2022-09-09T03:20:08;15.20;99.90
7512;DHT22;9999;48.780;9.146;2022-09-09T03:22:36;15.20;99.90
7512;DHT22;9999;48.780;9.146;2022-09-09T03:25:03;15.20;99.90
7512;DHT22;9999;48.780;9.146;2022-09-09T03:27:32;15.20;99.90
7512;DHT22;9999;48.780;9.146;2022-09-09T03:29:59;15.20;99.90
7512;DHT22;9999;48.780;9.146;2022-09-09T03:32:29;15.20;99.90
7512;DHT22;9999;48.780;9.146;2022-09-09T03:34:58;15.20;99.90
7512;DHT22;9999;48.780;9.146;2022-09-09T03:37:25;15.00;99.90
7512;DHT22;9999;48.780;9.146;2022-09-09T03:39:52;15.00;99.90
7512;DHT22;9999;48.780;9.146;2022-09-09T03:42:21;15.00;99.90
7512;DHT22;9999;48.780;9.146;2022-09-09T03:44:51;15.00;99.90
7512;DHT22;9999;48.780;9.146;2022-09-09T03:47:22;15.00;99.90
7512;DHT22;9999;48.780;9.146;2022-09-09T03:49:51;15.10;99.90
7512;DHT22;9999;48.780;9.146;2022-09-09T03:52:19;15.10;99.90
7512;DHT22;9999;48.780;9.146;2022-09-09T03:54:47;15.10;99.90
7512;DHT22;9999;48.780;9.146;2022-09-09T03:57:15;15.00;99.90
7512;DHT22;9999;48.780;9.146;2022-09-09T03:59:42;15.00;99.90
7512;DHT22;9999;48.780;9.146;2022-09-09T04:02:09;15.00;99.90
7512;DHT22;9999;48.780;9.146;2022-09-09T04:04:36;15.10;99.90
7512;DHT22;9999;48.780;9.146;2022-09-09T04:07:03;15.10;99.90
7512;DHT22;9999;48.780;9.146;2022-09-09T04:09:33;15.10;99.90
7512;DHT22;9999;48.780;9.146;2022-09-09T04:12:00;15.20;99.90
7512;DHT22;9999;48.780;9.146;2022-09-09T04:14:29;15.10;99.90
7512;DHT22;9999;48.780;9.146;2022-09-09T04:16:57;15.10;99.90
7512;DHT22;9999;48.780;9.146;2022-09-09T04:19:25;15.10;99.90
7512;DHT22;9999;48.780;9.146;2022-09-09T04:21:52;15.20;99.90
7512;DHT22;9999;48.780;9.146;2022-09-09T04:24:21;15.20;99.90
7512;DHT22;9999;48.780;9.146;2022-09-09T04:26:50;15.20;99.90
7512;DHT22;9999;48.780;9.146;2022-09-09T04:29:18;15.20;99.90
7512;DHT22;9999;48.780;9.146;2022-09-09T04:31:44;15.10;99.90
7512;DHT22;9999;48.780;9.146;2022-09-09T04:34:12;15.20;99.90
7512;DHT22;9999;48.780;9.146;2022-09-09T04:36:39;15.20;99.90
7512;DHT22;9999;48.780;9.146;2022-09-09T04:39:06;15.10;99.90
7512;DHT22;9999;48.780;9.146;2022-09-09T04:41:33;15.20;99.90
7512;DHT22;9999;48.780;9.146;2022-09-09T04:44:04;15.20;99.90
7512;DHT22;9999;48.780;9.146;2022-09-09T04:46:32;15.20;99.90
7512;DHT22;9999;48.780;9.146;2022-09-09T04:49:00;15.10;99.90
7512;DHT22;9999;48.780;9.146;2022-09-09T04:51:30;15.10;99.90
7512;DHT22;9999;48.780;9.146;2022-09-09T04:53:57;15.10;99.90
7512;DHT22;9999;48.780;9.146;2022-09-09T04:56:24;15.10;99.90
7512;DHT22;9999;48.780;9.146;2022-09-09T04:58:55;15.10;99.90
7512;DHT22;9999;48.780;9.146;2022-09-09T05:01:31;15.10;99.90
7512;DHT22;9999;48.780;9.146;2022-09-09T05:04:02;15.20;99.90
7512;DHT22;9999;48.780;9.146;2022-09-09T05:06:31;15.20;99.90
7512;DHT22;9999;48.780;9.146;2022-09-09T05:08:59;15.20;99.90
7512;DHT22;9999;48.780;9.146;2022-09-09T05:11:30;15.10;99.90
7512;DHT22;9999;48.780;9.146;2022-09-09T05:14:20;15.10;99.90
7512;DHT22;9999;48.780;9.146;2022-09-09T05:16:49;15.10;99.90
7512;DHT22;9999;48.780;9.146;2022-09-09T05:19:17;15.10;99.90
7512;DHT22;9999;48.780;9.146;2022-09-09T05:21:48;15.10;99.90
7512;DHT22;9999;48.780;9.146;2022-09-09T05:24:19;15.20;99.90
7512;DHT22;9999;48.780;9.146;2022-09-09T05:26:50;15.20;99.90
7512;DHT22;9999;48.780;9.146;2022-09-09T05:29:17;15.20;99.90
7512;DHT22;9999;48.780;9.146;2022-09-09T05:31:45;15.20;99.90
7512;DHT22;9999;48.780;9.146;2022-09-09T05:34:16;15.20;99.90
7512;DHT22;9999;48.780;9.146;2022-09-09T05:36:42;15.30;99.90
7512;DHT22;9999;48.780;9.146;2022-09-09T05:39:10;15.30;99.90
7512;DHT22;9999;48.780;9.146;2022-09-09T05:41:37;15.30;99.90
7512;DHT22;9999;48.780;9.146;2022-09-09T05:44:06;15.40;99.90
7512;DHT22;9999;48.780;9.146;2022-09-09T05:46:37;15.40;99.90
7512;DHT22;9999;48.780;9.146;2022-09-09T05:49:04;15.50;99.90
7512;DHT22;9999;48.780;9.146;2022-09-09T05:51:34;15.50;99.90
7512;DHT22;9999;48.780;9.146;2022-09-09T05:54:06;15.50;99.90
7512;DHT22;9999;48.780;9.146;2022-09-09T05:56:37;15.50;99.90
7512;DHT22;9999;48.780;9.146;2022-09-09T05:59:06;15.60;99.90
7512;DHT22;9999;48.780;9.146;2022-09-09T06:01:35;15.60;99.90
7512;DHT22;9999;48.780;9.146;2022-09-09T06:04:04;15.70;99.90
7512;DHT22;9999;48.780;9.146;2022-09-09T06:06:35;15.60;99.90
7512;DHT22;9999;48.780;9.146;2022-09-09T06:09:06;15.70;99.90
7512;DHT22;9999;48.780;9.146;2022-09-09T06:11:36;15.70;99.90
7512;DHT22;9999;48.780;9.146;2022-09-09T06:14:03;15.70;99.90
7512;DHT22;9999;48.780;9.146;2022-09-09T06:16:31;15.80;99.90
7512;DHT22;9999;48.780;9.146;2022-09-09T06:18:59;15.80;99.90
7512;DHT22;9999;48.780;9.146;2022-09-09T06:21:29;15.70;99.90
7512;DHT22;9999;48.780;9.146;2022-09-09T06:24:00;15.80;99.90
7512;DHT22;9999;48.780;9.146;2022-09-09T06:26:29;15.80;99.90
7512;DHT22;9999;48.780;9.146;2022-09-09T06:28:56;15.80;99.90
7512;DHT22;9999;48.780;9.146;2022-09-09T06:31:25;15.80;99.90
7512;DHT22;9999;48.780;9.146;2022-09-09T06:33:54;15.90;99.90
7512;DHT22;9999;48.780;9.146;2022-09-09T06:36:24;15.90;99.90
7512;DHT22;9999;48.780;9.146;2022-09-09T06:38:52;15.90;99.90
7512;DHT22;9999;48.780;9.146;2022-09-09T06:41:22;16.00;99.90
7512;DHT22;9999;48.780;9.146;2022-09-09T06:43:49;16.00;99.90
7512;DHT22;9999;48.780;9.146;2022-09-09T06:46:17;16.10;99.90
7512;DHT22;9999;48.780;9.146;2022-09-09T06:48:46;16.10;99.90
7512;DHT22;9999;48.780;9.146;2022-09-09T06:51:16;16.20;99.90
7512;DHT22;9999;48.780;9.146;2022-09-09T06:53:44;16.20;99.90
7512;DHT22;9999;48.780;9.146;2022-09-09T06:56:22;16.30;99.90
7512;DHT22;9999;48.780;9.146;2022-09-09T06:58:51;16.30;99.90
7512;DHT22;9999;48.780;9.146;2022-09-09T07:01:25;16.30;99.90
7512;DHT22;9999;48.780;9.146;2022-09-09T07:03:55;16.40;99.90
7512;DHT22;9999;48.780;9.146;2022-09-09T07:06:25;16.40;99.90
7512;DHT22;9999;48.780;9.146;2022-09-09T07:08:53;16.50;99.90
7512;DHT22;9999;48.780;9.146;2022-09-09T07:11:24;16.60;99.90
7512;DHT22;9999;48.780;9.146;2022-09-09T07:13:51;16.60;99.90
7512;DHT22;9999;48.780;9.146;2022-09-09T07:16:19;16.70;99.90
7512;DHT22;9999;48.780;9.146;2022-09-09T07:18:48;16.70;99.90
7512;DHT22;9999;48.780;9.146;2022-09-09T07:21:16;16.70;99.90
7512;DHT22;9999;48.780;9.146;2022-09-09T07:23:43;16.70;99.90
7512;DHT22;9999;48.780;9.146;2022-09-09T07:26:12;16.80;99.90
7512;DHT22;9999;48.780;9.146;2022-09-09T07:28:41;16.90;99.90
7512;DHT22;9999;48.780;9.146;2022-09-09T07:31:13;17.00;99.90
7512;DHT22;9999;48.780;9.146;2022-09-09T07:33:42;17.00;99.90
7512;DHT22;9999;48.780;9.146;2022-09-09T07:36:13;17.20;99.90
7512;DHT22;9999;48.780;9.146;2022-09-09T07:38:41;17.50;99.90
7512;DHT22;9999;48.780;9.146;2022-09-09T07:41:10;18.10;99.90
7512;DHT22;9999;48.780;9.146;2022-09-09T07:43:38;18.70;99.90
7512;DHT22;9999;48.780;9.146;2022-09-09T07:46:09;18.80;99.90
7512;DHT22;9999;48.780;9.146;2022-09-09T07:48:36;18.90;99.90
7512;DHT22;9999;48.780;9.146;2022-09-09T07:51:05;18.90;99.90
7512;DHT22;9999;48.780;9.146;2022-09-09T07:53:33;18.70;99.90
7512;DHT22;9999;48.780;9.146;2022-09-09T07:56:03;18.70;99.90
7512;DHT22;9999;48.780;9.146;2022-09-09T07:58:30;18.80;99.90
7512;DHT22;9999;48.780;9.146;2022-09-09T08:00:58;19.00;99.90
7512;DHT22;9999;48.780;9.146;2022-09-09T08:03:26;19.20;99.90
7512;DHT22;9999;48.780;9.146;2022-09-09T08:05:53;19.40;99.90
7512;DHT22;9999;48.780;9.146;2022-09-09T08:08:27;19.50;99.90
7512;DHT22;9999;48.780;9.146;2022-09-09T08:11:01;19.70;99.90
7512;DHT22;9999;48.780;9.146;2022-09-09T08:13:29;19.70;99.90
7512;DHT22;9999;48.780;9.146;2022-09-09T08:16:04;19.80;99.90
7512;DHT22;9999;48.780;9.146;2022-09-09T08:18:33;19.80;99.90
7512;DHT22;9999;48.780;9.146;2022-09-09T08:21:05;19.90;99.90
7512;DHT22;9999;48.780;9.146;2022-09-09T08:23:34;20.00;99.90
7512;DHT22;9999;48.780;9.146;2022-09-09T08:26:04;20.00;99.90
7512;DHT22;9999;48.780;9.146;2022-09-09T08:28:31;20.10;99.90
7512;DHT22;9999;48.780;9.146;2022-09-09T08:31:08;20.10;99.90
7512;DHT22;9999;48.780;9.146;2022-09-09T08:33:36;20.10;99.90
7512;DHT22;9999;48.780;9.146;2022-09-09T08:36:05;20.30;99.90
7512;DHT22;9999;48.780;9.146;2022-09-09T08:38:32;20.40;99.90
7512;DHT22;9999;48.780;9.146;2022-09-09T08:41:11;20.50;99.90
7512;DHT22;9999;48.780;9.146;2022-09-09T08:43:43;20.50;99.90
7512;DHT22;9999;48.780;9.146;2022-09-09T08:46:20;20.50;99.90
7512;DHT22;9999;48.780;9.146;2022-09-09T08:48:57;20.60;99.90
7512;DHT22;9999;48.780;9.146;2022-09-09T08:51:26;20.60;99.90
7512;DHT22;9999;48.780;9.146;2022-09-09T08:53:55;20.60;99.90
7512;DHT22;9999;48.780;9.146;2022-09-09T08:56:27;20.60;99.90
7512;DHT22;9999;48.780;9.146;2022-09-09T08:58:59;20.70;99.90
7512;DHT22;9999;48.780;9.146;2022-09-09T09:01:48;20.90;99.90
7512;DHT22;9999;48.780;9.146;2022-09-09T09:04:44;21.10;99.90
7512;DHT22;9999;48.780;9.146;2022-09-09T09:07:21;21.20;99.90
7512;DHT22;9999;48.780;9.146;2022-09-09T09:09:56;21.00;99.90
7512;DHT22;9999;48.780;9.146;2022-09-09T09:12:28;20.80;99.90
7512;DHT22;9999;48.780;9.146;2022-09-09T09:14:56;20.70;99.90
7512;DHT22;9999;48.780;9.146;2022-09-09T09:17:26;20.50;99.90
7512;DHT22;9999;48.780;9.146;2022-09-09T09:19:58;20.30;99.90
7512;DHT22;9999;48.780;9.146;2022-09-09T09:22:30;20.10;99.90
7512;DHT22;9999;48.780;9.146;2022-09-09T09:25:11;19.90;99.90
7512;DHT22;9999;48.780;9.146;2022-09-09T09:27:42;19.70;99.90
7512;DHT22;9999;48.780;9.146;2022-09-09T09:30:15;19.60;99.90
7512;DHT22;9999;48.780;9.146;2022-09-09T09:32:49;19.30;99.90
7512;DHT22;9999;48.780;9.146;2022-09-09T09:35:18;19.10;99.90
7512;DHT22;9999;48.780;9.146;2022-09-09T09:37:46;18.70;99.90
7512;DHT22;9999;48.780;9.146;2022-09-09T09:40:15;18.60;99.90
7512;DHT22;9999;48.780;9.146;2022-09-09T09:42:49;18.70;99.90
7512;DHT22;9999;48.780;9.146;2022-09-09T09:45:26;18.90;99.90
7512;DHT22;9999;48.780;9.146;2022-09-09T09:47:59;19.00;99.90
7512;DHT22;9999;48.780;9.146;2022-09-09T09:50:31;19.30;99.90
7512;DHT22;9999;48.780;9.146;2022-09-09T09:53:02;19.60;99.90
7512;DHT22;9999;48.780;9.146;2022-09-09T09:55:33;19.80;99.90
7512;DHT22;9999;48.780;9.146;2022-09-09T09:58:03;20.10;99.90
7512;DHT22;9999;48.780;9.146;2022-09-09T10:00:31;20.30;99.90
7512;DHT22;9999;48.780;9.146;2022-09-09T10:03:19;20.40;99.90
7512;DHT22;9999;48.780;9.146;2022-09-09T10:05:50;20.70;99.90
7512;DHT22;9999;48.780;9.146;2022-09-09T10:08:17;20.90;99.90
7512;DHT22;9999;48.780;9.146;2022-09-09T10:10:59;21.00;99.90
7512;DHT22;9999;48.780;9.146;2022-09-09T10:13:34;21.20;99.90
7512;DHT22;9999;48.780;9.146;2022-09-09T10:16:13;21.50;99.90
7512;DHT22;9999;48.780;9.146;2022-09-09T10:18:52;21.60;99.90
7512;DHT22;9999;48.780;9.146;2022-09-09T10:21:36;21.70;99.90
7512;DHT22;9999;48.780;9.146;2022-09-09T10:24:23;21.90;99.90
7512;DHT22;9999;48.780;9.146;2022-09-09T10:26:56;22.00;99.90
7512;DHT22;9999;48.780;9.146;2022-09-09T10:29:39;22.20;99.90
7512;DHT22;9999;48.780;9.146;2022-09-09T10:32:28;22.40;99.90
7512;DHT22;9999;48.780;9.146;2022-09-09T10:35:00;22.60;99.90
7512;DHT22;9999;48.780;9.146;2022-09-09T10:37:46;22.20;99.90
7512;DHT22;9999;48.780;9.146;2022-09-09T10:40:27;22.00;99.90
7512;DHT22;9999;48.780;9.146;2022-09-09T10:43:02;22.10;99.90
7512;DHT22;9999;48.780;9.146;2022-09-09T10:45:38;21.90;99.90
7512;DHT22;9999;48.780;9.146;2022-09-09T10:48:16;21.60;99.90
7512;DHT22;9999;48.780;9.146;2022-09-09T10:50:52;21.30;99.90
7512;DHT22;9999;48.780;9.146;2022-09-09T10:53:32;21.60;99.90
7512;DHT22;9999;48.780;9.146;2022-09-09T10:56:06;22.20;99.90
7512;DHT22;9999;48.780;9.146;2022-09-09T10:58:38;22.30;99.90
7512;DHT22;9999;48.780;9.146;2022-09-09T11:01:12;22.30;99.90
7512;DHT22;9999;48.780;9.146;2022-09-09T11:03:42;22.70;99.90
7512;DHT22;9999;48.780;9.146;2022-09-09T11:06:14;23.20;99.90
7512;DHT22;9999;48.780;9.146;2022-09-09T11:08:44;23.00;99.90
7512;DHT22;9999;48.780;9.146;2022-09-09T11:11:15;22.80;99.90
7512;DHT22;9999;48.780;9.146;2022-09-09T11:13:46;22.60;99.90
7512;DHT22;9999;48.780;9.146;2022-09-09T11:16:20;22.10;99.90
7512;DHT22;9999;48.780;9.146;2022-09-09T11:18:55;21.90;99.90
7512;DHT22;9999;48.780;9.146;2022-09-09T11:21:27;21.70;99.90
7512;DHT22;9999;48.780;9.146;2022-09-09T11:24:00;21.20;99.90
7512;DHT22;9999;48.780;9.146;2022-09-09T11:26:31;20.80;99.90
7512;DHT22;9999;48.780;9.146;2022-09-09T11:29:13;20.70;99.90
7512;DHT22;9999;48.780;9.146;2022-09-09T11:31:50;20.50;99.90
7512;DHT22;9999;48.780;9.146;2022-09-09T11:34:44;20.40;99.90
7512;DHT22;9999;48.780;9.146;2022-09-09T11:37:51;20.40;99.90
7512;DHT22;9999;48.780;9.146;2022-09-09T11:40:23;20.20;99.90
7512;DHT22;9999;48.780;9.146;2022-09-09T11:43:02;19.90;99.90
7512;DHT22;9999;48.780;9.146;2022-09-09T11:45:30;19.80;99.90
7512;DHT22;9999;48.780;9.146;2022-09-09T11:47:59;19.70;99.90
7512;DHT22;9999;48.780;9.146;2022-09-09T11:50:32;19.70;99.90
7512;DHT22;9999;48.780;9.146;2022-09-09T11:53:18;19.40;99.90
7512;DHT22;9999;48.780;9.146;2022-09-09T11:56:09;19.50;99.90
7512;DHT22;9999;48.780;9.146;2022-09-09T11:58:43;19.40;99.90
7512;DHT22;9999;48.780;9.146;2022-09-09T12:01:24;19.40;99.90
7512;DHT22;9999;48.780;9.146;2022-09-09T12:04:16;19.50;99.90
7512;DHT22;9999;48.780;9.146;2022-09-09T12:06:45;19.60;99.90
7512;DHT22;9999;48.780;9.146;2022-09-09T12:09:19;19.80;99.90
7512;DHT22;9999;48.780;9.146;2022-09-09T12:11:50;20.20;99.90
7512;DHT22;9999;48.780;9.146;2022-09-09T12:14:21;20.30;99.90
7512;DHT22;9999;48.780;9.146;2022-09-09T12:16:50;20.50;99.90
7512;DHT22;9999;48.780;9.146;2022-09-09T12:19:21;20.70;99.90
7512;DHT22;9999;48.780;9.146;2022-09-09T12:21:58;21.00;99.90
7512;DHT22;9999;48.780;9.146;2022-09-09T12:24:33;21.40;99.90
7512;DHT22;9999;48.780;9.146;2022-09-09T12:27:07;21.70;99.90
7512;DHT22;9999;48.780;9.146;2022-09-09T12:29:42;21.70;99.90
7512;DHT22;9999;48.780;9.146;2022-09-09T12:32:12;21.90;99.90
7512;DHT22;9999;48.780;9.146;2022-09-09T12:34:46;21.90;99.90
7512;DHT22;9999;48.780;9.146;2022-09-09T12:37:21;22.10;99.90
7512;DHT22;9999;48.780;9.146;2022-09-09T12:39:55;21.80;99.90
7512;DHT22;9999;48.780;9.146;2022-09-09T12:42:24;21.40;99.90
7512;DHT22;9999;48.780;9.146;2022-09-09T12:44:53;20.90;99.90
7512;DHT22;9999;48.780;9.146;2022-09-09T12:47:23;20.90;99.90
7512;DHT22;9999;48.780;9.146;2022-09-09T12:49:52;20.80;99.90
7512;DHT22;9999;48.780;9.146;2022-09-09T12:52:26;20.80;99.90
7512;DHT22;9999;48.780;9.146;2022-09-09T12:54:57;20.80;99.90
7512;DHT22;9999;48.780;9.146;2022-09-09T12:57:31;21.40;99.90
7512;DHT22;9999;48.780;9.146;2022-09-09T13:00:06;21.90;99.90
7512;DHT22;9999;48.780;9.146;2022-09-09T13:02:34;22.30;99.90
7512;DHT22;9999;48.780;9.146;2022-09-09T13:05:12;22.50;99.90
7512;DHT22;9999;48.780;9.146;2022-09-09T13:07:40;22.60;99.90
7512;DHT22;9999;48.780;9.146;2022-09-09T13:10:11;22.60;99.90
7512;DHT22;9999;48.780;9.146;2022-09-09T13:12:40;22.50;99.90
7512;DHT22;9999;48.780;9.146;2022-09-09T13:15:21;22.40;99.90
7512;DHT22;9999;48.780;9.146;2022-09-09T13:17:52;22.30;99.90
7512;DHT22;9999;48.780;9.146;2022-09-09T13:20:20;22.20;99.90
7512;DHT22;9999;48.780;9.146;2022-09-09T13:22:48;22.00;99.90
7512;DHT22;9999;48.780;9.146;2022-09-09T13:25:21;21.90;99.90
7512;DHT22;9999;48.780;9.146;2022-09-09T13:27:58;21.80;99.90
7512;DHT22;9999;48.780;9.146;2022-09-09T13:30:27;21.80;99.90
7512;DHT22;9999;48.780;9.146;2022-09-09T13:33:03;22.20;99.90
7512;DHT22;9999;48.780;9.146;2022-09-09T13:35:30;22.60;99.90
7512;DHT22;9999;48.780;9.146;2022-09-09T13:37:58;22.80;99.90
7512;DHT22;9999;48.780;9.146;2022-09-09T13:40:25;23.00;98.90
7512;DHT22;9999;48.780;9.146;2022-09-09T13:42:56;23.10;97.30
7512;DHT22;9999;48.780;9.146;2022-09-09T13:45:31;23.00;96.90
7512;DHT22;9999;48.780;9.146;2022-09-09T13:48:09;22.80;94.70
7512;DHT22;9999;48.780;9.146;2022-09-09T13:50:36;22.40;95.90
7512;DHT22;9999;48.780;9.146;2022-09-09T13:53:03;22.00;95.70
7512;DHT22;9999;48.780;9.146;2022-09-09T13:55:30;22.00;96.10
7512;DHT22;9999;48.780;9.146;2022-09-09T13:57:58;22.00;95.00
7512;DHT22;9999;48.780;9.146;2022-09-09T14:00:28;22.30;97.20
7512;DHT22;9999;48.780;9.146;2022-09-09T14:02:57;22.60;95.40
7512;DHT22;9999;48.780;9.146;2022-09-09T14:05:27;22.90;94.60
7512;DHT22;9999;48.780;9.146;2022-09-09T14:07:54;23.20;94.10
7512;DHT22;9999;48.780;9.146;2022-09-09T14:10:21;23.30;91.80
7512;DHT22;9999;48.780;9.146;2022-09-09T14:12:48;23.30;93.20
7512;DHT22;9999;48.780;9.146;2022-09-09T14:15:15;23.40;92.10
7512;DHT22;9999;48.780;9.146;2022-09-09T14:17:42;23.50;91.00
7512;DHT22;9999;48.780;9.146;2022-09-09T14:20:11;23.60;90.20
7512;DHT22;9999;48.780;9.146;2022-09-09T14:22:41;23.60;91.30
7512;DHT22;9999;48.780;9.146;2022-09-09T14:25:09;23.40;91.50
7512;DHT22;9999;48.780;9.146;2022-09-09T14:27:36;23.00;91.30
7512;DHT22;9999;48.780;9.146;2022-09-09T14:30:05;22.80;92.00
7512;DHT22;9999;48.780;9.146;2022-09-09T14:32:32;22.50;91.30
7512;DHT22;9999;48.780;9.146;2022-09-09T14:34:59;22.30;91.80
7512;DHT22;9999;48.780;9.146;2022-09-09T14:37:28;22.50;91.10
7512;DHT22;9999;48.780;9.146;2022-09-09T14:39:56;22.60;90.60
7512;DHT22;9999;48.780;9.146;2022-09-09T14:42:23;22.40;90.90
7512;DHT22;9999;48.780;9.146;2022-09-09T14:44:50;22.30;91.90
7512;DHT22;9999;48.780;9.146;2022-09-09T14:47:16;22.30;91.00
7512;DHT22;9999;48.780;9.146;2022-09-09T14:49:43;22.40;90.60
7512;DHT22;9999;48.780;9.146;2022-09-09T14:52:11;22.50;91.50
7512;DHT22;9999;48.780;9.146;2022-09-09T14:54:39;22.30;90.20
7512;DHT22;9999;48.780;9.146;2022-09-09T14:57:06;22.00;90.60
7512;DHT22;9999;48.780;9.146;2022-09-09T14:59:33;21.80;91.10
7512;DHT22;9999;48.780;9.146;2022-09-09T15:02:00;22.00;90.30
7512;DHT22;9999;48.780;9.146;2022-09-09T15:04:29;22.30;91.20
7512;DHT22;9999;48.780;9.146;2022-09-09T15:06:56;22.50;90.30
7512;DHT22;9999;48.780;9.146;2022-09-09T15:09:23;22.50;89.30
7512;DHT22;9999;48.780;9.146;2022-09-09T15:11:51;22.30;88.40
7512;DHT22;9999;48.780;9.146;2022-09-09T15:14:18;22.10;90.30
7512;DHT22;9999;48.780;9.146;2022-09-09T15:16:45;21.90;89.00
7512;DHT22;9999;48.780;9.146;2022-09-09T15:19:11;21.90;90.60
7512;DHT22;9999;48.780;9.146;2022-09-09T15:21:38;21.70;90.60
7512;DHT22;9999;48.780;9.146;2022-09-09T15:24:06;21.50;92.50
7512;DHT22;9999;48.780;9.146;2022-09-09T15:26:34;21.40;91.80
7512;DHT22;9999;48.780;9.146;2022-09-09T15:29:05;21.30;91.40
7512;DHT22;9999;48.780;9.146;2022-09-09T15:31:33;21.30;92.50
7512;DHT22;9999;48.780;9.146;2022-09-09T15:34:01;21.20;92.30
7512;DHT22;9999;48.780;9.146;2022-09-09T15:36:30;21.30;92.70
7512;DHT22;9999;48.780;9.146;2022-09-09T15:38:58;21.40;93.20
7512;DHT22;9999;48.780;9.146;2022-09-09T15:41:25;21.30;92.40
7512;DHT22;9999;48.780;9.146;2022-09-09T15:43:54;21.30;92.90
7512;DHT22;9999;48.780;9.146;2022-09-09T15:46:29;21.20;92.50
7512;DHT22;9999;48.780;9.146;2022-09-09T15:48:57;21.10;93.30
7512;DHT22;9999;48.780;9.146;2022-09-09T15:51:24;21.00;94.10
7512;DHT22;9999;48.780;9.146;2022-09-09T15:53:54;21.00;93.90
7512;DHT22;9999;48.780;9.146;2022-09-09T15:56:21;21.00;93.60
7512;DHT22;9999;48.780;9.146;2022-09-09T15:58:48;20.80;94.30
7512;DHT22;9999;48.780;9.146;2022-09-09T16:01:15;20.90;94.50
7512;DHT22;9999;48.780;9.146;2022-09-09T16:03:43;20.90;94.80
7512;DHT22;9999;48.780;9.146;2022-09-09T16:06:12;20.70;94.50
7512;DHT22;9999;48.780;9.146;2022-09-09T16:08:41;20.60;94.30
7512;DHT22;9999;48.780;9.146;2022-09-09T16:11:09;20.60;94.30
7512;DHT22;9999;48.780;9.146;2022-09-09T16:13:38;20.50;94.80
7512;DHT22;9999;48.780;9.146;2022-09-09T16:16:06;20.40;95.20
7512;DHT22;9999;48.780;9.146;2022-09-09T16:18:34;20.40;96.20
7512;DHT22;9999;48.780;9.146;2022-09-09T16:21:03;20.50;95.00
7512;DHT22;9999;48.780;9.146;2022-09-09T16:23:31;20.40;95.80
7512;DHT22;9999;48.780;9.146;2022-09-09T16:25:58;20.40;95.60
7512;DHT22;9999;48.780;9.146;2022-09-09T16:28:25;20.40;96.00
7512;DHT22;9999;48.780;9.146;2022-09-09T16:30:51;20.40;95.50
7512;DHT22;9999;48.780;9.146;2022-09-09T16:33:18;20.30;96.70